sensor_id;sensor_type;location;lat;lon;timestamp;P1;durP1;ratioP1;P2;durP2;ratioP2
40459;SDS011;26164;51.138;16.952;2023-03-24T00:01:51;6.03;;;3.35;;
40459;SDS011;26164;51.138;16.952;2023-03-24T00:04:17;7.45;;;3.10;;
40459;SDS011;26164;51.138;16.952;2023-03-24T00:06:43;5.47;;;2.90;;
40459;SDS011;26164;51.138;16.952;2023-03-24T00:09:09;8.13;;;3.20;;
40459;SDS011;26164;51.138;16.952;2023-03-24T00:11:36;4.85;;;3.05;;
40459;SDS011;26164;51.138;16.952;2023-03-24T00:14:02;5.18;;;2.85;;
40459;SDS011;26164;51.138;16.952;2023-03-24T00:16:29;5.70;;;2.80;;
40459;SDS011;26164;51.138;16.952;2023-03-24T00:18:55;6.20;;;2.80;;
40459;SDS011;26164;51.138;16.952;2023-03-24T00:21:22;5.68;;;2.95;;
40459;SDS011;26164;51.138;16.952;2023-03-24T00:23:51;6.70;;;2.92;;
40459;SDS011;26164;51.138;16.952;2023-03-24T00:26:19;8.20;;;2.47;;
40459;SDS011;26164;51.138;16.952;2023-03-24T00:28:46;7.00;;;2.95;;
40459;SDS011;26164;51.138;16.952;2023-03-24T00:31:15;4.90;;;2.58;;
40459;SDS011;26164;51.138;16.952;2023-03-24T00:33:42;6.10;;;2.80;;
40459;SDS011;26164;51.138;16.952;2023-03-24T00:36:20;5.72;;;3.40;;
40459;SDS011;26164;51.138;16.952;2023-03-24T00:38:47;6.05;;;3.13;;
40459;SDS011;26164;51.138;16.952;2023-03-24T00:41:15;9.93;;;3.50;;
40459;SDS011;26164;51.138;16.952;2023-03-24T00:43:46;9.40;;;3.70;;
40459;SDS011;26164;51.138;16.952;2023-03-24T00:46:13;7.30;;;3.75;;
40459;SDS011;26164;51.138;16.952;2023-03-24T00:48:57;6.10;;;3.03;;
40459;SDS011;26164;51.138;16.952;2023-03-24T00:51:28;5.20;;;2.83;;
40459;SDS011;26164;51.138;16.952;2023-03-24T00:53:53;5.88;;;2.72;;
40459;SDS011;26164;51.138;16.952;2023-03-24T00:56:24;6.03;;;3.03;;
40459;SDS011;26164;51.138;16.952;2023-03-24T00:58:52;5.43;;;3.03;;
40459;SDS011;26164;51.138;16.952;2023-03-24T01:01:19;4.82;;;2.72;;
40459;SDS011;26164;51.138;16.952;2023-03-24T01:03:47;7.25;;;2.50;;
40459;SDS011;26164;51.138;16.952;2023-03-24T01:06:16;6.43;;;2.53;;
40459;SDS011;26164;51.138;16.952;2023-03-24T01:08:42;5.93;;;2.45;;
40459;SDS011;26164;51.138;16.952;2023-03-24T01:11:09;5.72;;;2.70;;
40459;SDS011;26164;51.138;16.952;2023-03-24T01:13:35;4.30;;;2.50;;
40459;SDS011;26164;51.138;16.952;2023-03-24T01:16:01;6.57;;;2.50;;
40459;SDS011;26164;51.138;16.952;2023-03-24T01:18:27;7.95;;;2.80;;
40459;SDS011;26164;51.138;16.952;2023-03-24T01:20:53;5.90;;;3.05;;
40459;SDS011;26164;51.138;16.952;2023-03-24T01:23:20;6.22;;;2.65;;
40459;SDS011;26164;51.138;16.952;2023-03-24T01:25:47;5.40;;;2.72;;
40459;SDS011;26164;51.138;16.952;2023-03-24T01:28:23;6.13;;;2.78;;
40459;SDS011;26164;51.138;16.952;2023-03-24T01:30:50;7.72;;;2.83;;
40459;SDS011;26164;51.138;16.952;2023-03-24T01:33:16;5.00;;;2.80;;
40459;SDS011;26164;51.138;16.952;2023-03-24T01:35:42;7.20;;;2.80;;
40459;SDS011;26164;51.138;16.952;2023-03-24T01:38:09;5.78;;;3.10;;
40459;SDS011;26164;51.138;16.952;2023-03-24T01:40:36;4.53;;;2.75;;
40459;SDS011;26164;51.138;16.952;2023-03-24T01:43:02;5.13;;;2.60;;
40459;SDS011;26164;51.138;16.952;2023-03-24T01:48:23;6.53;;;2.95;;
40459;SDS011;26164;51.138;16.952;2023-03-24T01:50:54;5.82;;;2.70;;
40459;SDS011;26164;51.138;16.952;2023-03-24T01:53:20;5.60;;;2.95;;
40459;SDS011;26164;51.138;16.952;2023-03-24T01:55:47;6.50;;;2.70;;
40459;SDS011;26164;51.138;16.952;2023-03-24T01:58:15;4.90;;;2.40;;
40459;SDS011;26164;51.138;16.952;2023-03-24T02:00:53;9.50;;;3.00;;
40459;SDS011;26164;51.138;16.952;2023-03-24T02:03:37;5.43;;;2.70;;
40459;SDS011;26164;51.138;16.952;2023-03-24T02:06:05;5.75;;;2.90;;
40459;SDS011;26164;51.138;16.952;2023-03-24T02:11:02;5.25;;;3.10;;
40459;SDS011;26164;51.138;16.952;2023-03-24T02:13:37;6.72;;;2.90;;
40459;SDS011;26164;51.138;16.952;2023-03-24T02:16:11;6.50;;;3.25;;
40459;SDS011;26164;51.138;16.952;2023-03-24T02:34:00;8.27;;;3.17;;
40459;SDS011;26164;51.138;16.952;2023-03-24T02:36:53;5.22;;;2.97;;
40459;SDS011;26164;51.138;16.952;2023-03-24T02:39:26;5.45;;;2.60;;
40459;SDS011;26164;51.138;16.952;2023-03-24T02:44:39;5.05;;;2.92;;
40459;SDS011;26164;51.138;16.952;2023-03-24T02:54:59;6.43;;;3.22;;
40459;SDS011;26164;51.138;16.952;2023-03-24T03:00:21;5.78;;;2.70;;
40459;SDS011;26164;51.138;16.952;2023-03-24T03:03:10;7.43;;;3.28;;
40459;SDS011;26164;51.138;16.952;2023-03-24T03:05:41;9.13;;;3.25;;
40459;SDS011;26164;51.138;16.952;2023-03-24T03:08:09;5.80;;;3.00;;
40459;SDS011;26164;51.138;16.952;2023-03-24T03:10:37;4.97;;;2.88;;
40459;SDS011;26164;51.138;16.952;2023-03-24T03:13:09;7.07;;;2.90;;
40459;SDS011;26164;51.138;16.952;2023-03-24T03:15:38;4.93;;;2.80;;
40459;SDS011;26164;51.138;16.952;2023-03-24T03:20:33;6.78;;;3.22;;
40459;SDS011;26164;51.138;16.952;2023-03-24T03:23:03;8.20;;;3.17;;
40459;SDS011;26164;51.138;16.952;2023-03-24T03:25:32;6.40;;;2.90;;
40459;SDS011;26164;51.138;16.952;2023-03-24T03:28:00;6.78;;;3.13;;
40459;SDS011;26164;51.138;16.952;2023-03-24T03:30:38;6.45;;;2.85;;
40459;SDS011;26164;51.138;16.952;2023-03-24T03:33:07;5.22;;;2.92;;
40459;SDS011;26164;51.138;16.952;2023-03-24T03:35:35;6.03;;;3.33;;
40459;SDS011;26164;51.138;16.952;2023-03-24T03:38:11;6.20;;;3.13;;
40459;SDS011;26164;51.138;16.952;2023-03-24T03:40:41;4.93;;;2.75;;
40459;SDS011;26164;51.138;16.952;2023-03-24T03:43:16;6.60;;;3.10;;
40459;SDS011;26164;51.138;16.952;2023-03-24T03:45:42;7.57;;;3.65;;
40459;SDS011;26164;51.138;16.952;2023-03-24T03:48:08;5.10;;;3.33;;
40459;SDS011;26164;51.138;16.952;2023-03-24T03:50:35;6.32;;;2.92;;
40459;SDS011;26164;51.138;16.952;2023-03-24T03:53:05;9.73;;;3.95;;
40459;SDS011;26164;51.138;16.952;2023-03-24T03:55:31;13.90;;;6.75;;
40459;SDS011;26164;51.138;16.952;2023-03-24T03:57:59;12.85;;;6.35;;
40459;SDS011;26164;51.138;16.952;2023-03-24T04:00:50;16.70;;;6.43;;
40459;SDS011;26164;51.138;16.952;2023-03-24T04:06:03;6.70;;;3.33;;
40459;SDS011;26164;51.138;16.952;2023-03-24T04:08:43;8.85;;;3.60;;
40459;SDS011;26164;51.138;16.952;2023-03-24T04:24:53;8.52;;;3.70;;
40459;SDS011;26164;51.138;16.952;2023-03-24T04:35:52;10.18;;;4.95;;
40459;SDS011;26164;51.138;16.952;2023-03-24T04:38:26;8.25;;;4.38;;
40459;SDS011;26164;51.138;16.952;2023-03-24T04:41:18;7.20;;;4.50;;
40459;SDS011;26164;51.138;16.952;2023-03-24T04:43:55;8.40;;;4.40;;
40459;SDS011;26164;51.138;16.952;2023-03-24T04:46:23;9.77;;;3.60;;
40459;SDS011;26164;51.138;16.952;2023-03-24T04:49:02;6.82;;;3.83;;
40459;SDS011;26164;51.138;16.952;2023-03-24T04:51:32;7.43;;;4.00;;
40459;SDS011;26164;51.138;16.952;2023-03-24T04:54:04;6.72;;;4.18;;
40459;SDS011;26164;51.138;16.952;2023-03-24T04:59:17;9.10;;;3.80;;
40459;SDS011;26164;51.138;16.952;2023-03-24T05:01:46;7.03;;;3.72;;
40459;SDS011;26164;51.138;16.952;2023-03-24T05:04:26;7.22;;;3.47;;
40459;SDS011;26164;51.138;16.952;2023-03-24T05:06:59;11.05;;;4.10;;
40459;SDS011;26164;51.138;16.952;2023-03-24T05:09:29;5.95;;;3.30;;
40459;SDS011;26164;51.138;16.952;2023-03-24T05:11:57;7.82;;;3.55;;
40459;SDS011;26164;51.138;16.952;2023-03-24T05:14:24;8.38;;;3.83;;
40459;SDS011;26164;51.138;16.952;2023-03-24T05:16:51;9.50;;;3.58;;
40459;SDS011;26164;51.138;16.952;2023-03-24T05:19:18;5.30;;;3.40;;
40459;SDS011;26164;51.138;16.952;2023-03-24T05:21:45;6.97;;;3.63;;
40459;SDS011;26164;51.138;16.952;2023-03-24T05:24:12;8.45;;;3.78;;
40459;SDS011;26164;51.138;16.952;2023-03-24T05:26:38;6.13;;;3.33;;
40459;SDS011;26164;51.138;16.952;2023-03-24T05:29:22;6.07;;;3.40;;
40459;SDS011;26164;51.138;16.952;2023-03-24T05:31:50;7.07;;;3.53;;
40459;SDS011;26164;51.138;16.952;2023-03-24T05:34:17;6.80;;;3.50;;
40459;SDS011;26164;51.138;16.952;2023-03-24T05:36:52;7.13;;;3.92;;
40459;SDS011;26164;51.138;16.952;2023-03-24T05:39:20;8.65;;;3.70;;
40459;SDS011;26164;51.138;16.952;2023-03-24T05:41:56;6.53;;;3.70;;
40459;SDS011;26164;51.138;16.952;2023-03-24T05:44:22;7.28;;;3.65;;
40459;SDS011;26164;51.138;16.952;2023-03-24T05:47:02;8.23;;;4.03;;
40459;SDS011;26164;51.138;16.952;2023-03-24T05:49:28;7.47;;;3.70;;
40459;SDS011;26164;51.138;16.952;2023-03-24T05:52:10;8.50;;;3.90;;
40459;SDS011;26164;51.138;16.952;2023-03-24T05:54:55;6.60;;;3.85;;
40459;SDS011;26164;51.138;16.952;2023-03-24T06:25:12;7.00;;;3.50;;
40459;SDS011;26164;51.138;16.952;2023-03-24T06:27:55;7.70;;;3.67;;
40459;SDS011;26164;51.138;16.952;2023-03-24T06:30:23;7.30;;;3.65;;
40459;SDS011;26164;51.138;16.952;2023-03-24T06:32:52;7.82;;;3.63;;
40459;SDS011;26164;51.138;16.952;2023-03-24T06:35:23;11.27;;;3.50;;
40459;SDS011;26164;51.138;16.952;2023-03-24T06:38:09;10.73;;;3.40;;
40459;SDS011;26164;51.138;16.952;2023-03-24T06:40:37;16.00;;;3.58;;
40459;SDS011;26164;51.138;16.952;2023-03-24T06:43:04;14.75;;;3.38;;
40459;SDS011;26164;51.138;16.952;2023-03-24T06:45:32;11.32;;;3.40;;
40459;SDS011;26164;51.138;16.952;2023-03-24T06:47:59;13.57;;;3.40;;
40459;SDS011;26164;51.138;16.952;2023-03-24T06:50:26;14.57;;;3.22;;
40459;SDS011;26164;51.138;16.952;2023-03-24T06:52:58;10.65;;;3.08;;
40459;SDS011;26164;51.138;16.952;2023-03-24T06:55:33;6.97;;;3.13;;
40459;SDS011;26164;51.138;16.952;2023-03-24T06:57:59;8.65;;;3.13;;
40459;SDS011;26164;51.138;16.952;2023-03-24T07:00:35;10.85;;;3.40;;
40459;SDS011;26164;51.138;16.952;2023-03-24T07:03:22;7.78;;;3.25;;
40459;SDS011;26164;51.138;16.952;2023-03-24T07:06:19;8.88;;;3.38;;
40459;SDS011;26164;51.138;16.952;2023-03-24T07:08:51;16.58;;;6.47;;
40459;SDS011;26164;51.138;16.952;2023-03-24T07:11:18;12.90;;;3.00;;
40459;SDS011;26164;51.138;16.952;2023-03-24T07:13:49;8.88;;;2.92;;
40459;SDS011;26164;51.138;16.952;2023-03-24T07:16:15;9.85;;;2.65;;
40459;SDS011;26164;51.138;16.952;2023-03-24T07:18:41;6.95;;;2.70;;
40459;SDS011;26164;51.138;16.952;2023-03-24T07:21:08;9.13;;;2.80;;
40459;SDS011;26164;51.138;16.952;2023-03-24T07:23:35;10.52;;;2.75;;
40459;SDS011;26164;51.138;16.952;2023-03-24T07:28:45;7.30;;;3.03;;
40459;SDS011;26164;51.138;16.952;2023-03-24T07:31:14;11.60;;;3.10;;
40459;SDS011;26164;51.138;16.952;2023-03-24T07:33:41;7.60;;;2.90;;
40459;SDS011;26164;51.138;16.952;2023-03-24T07:36:10;6.97;;;2.80;;
40459;SDS011;26164;51.138;16.952;2023-03-24T07:38:38;8.05;;;2.80;;
40459;SDS011;26164;51.138;16.952;2023-03-24T07:41:08;6.70;;;2.83;;
40459;SDS011;26164;51.138;16.952;2023-03-24T07:43:38;9.73;;;2.88;;
40459;SDS011;26164;51.138;16.952;2023-03-24T07:46:18;8.38;;;2.90;;
40459;SDS011;26164;51.138;16.952;2023-03-24T07:48:44;10.98;;;2.70;;
40459;SDS011;26164;51.138;16.952;2023-03-24T07:51:15;7.05;;;2.80;;
40459;SDS011;26164;51.138;16.952;2023-03-24T07:53:52;7.65;;;2.58;;
40459;SDS011;26164;51.138;16.952;2023-03-24T07:56:33;7.25;;;2.90;;
40459;SDS011;26164;51.138;16.952;2023-03-24T07:59:00;6.38;;;2.60;;
40459;SDS011;26164;51.138;16.952;2023-03-24T08:01:32;8.10;;;2.95;;
40459;SDS011;26164;51.138;16.952;2023-03-24T08:04:02;6.85;;;2.42;;
40459;SDS011;26164;51.138;16.952;2023-03-24T08:06:51;5.43;;;2.67;;
40459;SDS011;26164;51.138;16.952;2023-03-24T08:09:20;8.80;;;3.15;;
40459;SDS011;26164;51.138;16.952;2023-03-24T08:11:48;13.23;;;3.45;;
40459;SDS011;26164;51.138;16.952;2023-03-24T08:14:14;7.65;;;2.53;;
40459;SDS011;26164;51.138;16.952;2023-03-24T08:16:40;7.43;;;2.33;;
40459;SDS011;26164;51.138;16.952;2023-03-24T08:19:10;10.20;;;3.95;;
40459;SDS011;26164;51.138;16.952;2023-03-24T08:21:36;9.35;;;2.25;;
40459;SDS011;26164;51.138;16.952;2023-03-24T08:24:02;12.73;;;2.70;;
40459;SDS011;26164;51.138;16.952;2023-03-24T08:26:29;7.03;;;2.53;;
40459;SDS011;26164;51.138;16.952;2023-03-24T08:28:59;8.63;;;2.08;;
40459;SDS011;26164;51.138;16.952;2023-03-24T08:31:32;5.97;;;2.25;;
40459;SDS011;26164;51.138;16.952;2023-03-24T08:33:58;7.75;;;2.50;;
40459;SDS011;26164;51.138;16.952;2023-03-24T08:36:24;5.78;;;2.50;;
40459;SDS011;26164;51.138;16.952;2023-03-24T08:38:53;6.63;;;2.72;;
40459;SDS011;26164;51.138;16.952;2023-03-24T08:41:21;7.43;;;2.90;;
40459;SDS011;26164;51.138;16.952;2023-03-24T08:43:54;6.95;;;2.65;;
40459;SDS011;26164;51.138;16.952;2023-03-24T08:48:49;4.88;;;2.50;;
40459;SDS011;26164;51.138;16.952;2023-03-24T08:51:23;6.47;;;2.70;;
40459;SDS011;26164;51.138;16.952;2023-03-24T08:53:49;7.00;;;2.55;;
40459;SDS011;26164;51.138;16.952;2023-03-24T08:56:17;12.63;;;3.25;;
40459;SDS011;26164;51.138;16.952;2023-03-24T08:58:44;6.07;;;3.00;;
40459;SDS011;26164;51.138;16.952;2023-03-24T09:01:16;8.82;;;3.00;;
40459;SDS011;26164;51.138;16.952;2023-03-24T09:03:44;9.38;;;2.70;;
40459;SDS011;26164;51.138;16.952;2023-03-24T09:06:11;4.85;;;2.50;;
40459;SDS011;26164;51.138;16.952;2023-03-24T09:08:37;9.23;;;3.55;;
40459;SDS011;26164;51.138;16.952;2023-03-24T09:11:16;6.82;;;2.97;;
40459;SDS011;26164;51.138;16.952;2023-03-24T09:13:42;6.95;;;2.90;;
40459;SDS011;26164;51.138;16.952;2023-03-24T09:16:08;5.10;;;2.75;;
40459;SDS011;26164;51.138;16.952;2023-03-24T09:18:34;5.88;;;2.45;;
40459;SDS011;26164;51.138;16.952;2023-03-24T09:21:00;6.50;;;2.70;;
40459;SDS011;26164;51.138;16.952;2023-03-24T09:23:26;5.47;;;2.40;;
40459;SDS011;26164;51.138;16.952;2023-03-24T09:25:54;7.80;;;3.00;;
40459;SDS011;26164;51.138;16.952;2023-03-24T09:28:20;5.85;;;2.40;;
40459;SDS011;26164;51.138;16.952;2023-03-24T09:30:46;6.75;;;2.60;;
40459;SDS011;26164;51.138;16.952;2023-03-24T09:33:14;7.45;;;2.25;;
40459;SDS011;26164;51.138;16.952;2023-03-24T09:35:40;4.60;;;2.42;;
40459;SDS011;26164;51.138;16.952;2023-03-24T09:38:06;4.90;;;2.20;;
40459;SDS011;26164;51.138;16.952;2023-03-24T09:40:35;4.53;;;1.90;;
40459;SDS011;26164;51.138;16.952;2023-03-24T09:45:49;7.82;;;2.53;;
40459;SDS011;26164;51.138;16.952;2023-03-24T09:48:21;7.00;;;2.53;;
40459;SDS011;26164;51.138;16.952;2023-03-24T09:50:52;8.85;;;1.73;;
40459;SDS011;26164;51.138;16.952;2023-03-24T09:53:39;3.58;;;1.20;;
40459;SDS011;26164;51.138;16.952;2023-03-24T09:56:10;3.55;;;1.20;;
40459;SDS011;26164;51.138;16.952;2023-03-24T09:58:36;6.68;;;1.13;;
40459;SDS011;26164;51.138;16.952;2023-03-24T10:01:12;4.25;;;1.38;;
40459;SDS011;26164;51.138;16.952;2023-03-24T10:03:39;2.67;;;1.30;;
40459;SDS011;26164;51.138;16.952;2023-03-24T10:06:15;5.43;;;1.38;;
40459;SDS011;26164;51.138;16.952;2023-03-24T10:08:46;2.60;;;1.20;;
40459;SDS011;26164;51.138;16.952;2023-03-24T10:11:18;3.90;;;1.40;;
40459;SDS011;26164;51.138;16.952;2023-03-24T10:19:18;5.70;;;1.63;;
40459;SDS011;26164;51.138;16.952;2023-03-24T10:21:56;6.32;;;1.77;;
40459;SDS011;26164;51.138;16.952;2023-03-24T10:27:21;8.07;;;1.20;;
40459;SDS011;26164;51.138;16.952;2023-03-24T10:29:51;5.32;;;1.35;;
40459;SDS011;26164;51.138;16.952;2023-03-24T10:32:28;3.75;;;1.30;;
40459;SDS011;26164;51.138;16.952;2023-03-24T10:34:57;4.32;;;1.33;;
40459;SDS011;26164;51.138;16.952;2023-03-24T10:37:26;4.15;;;1.60;;
40459;SDS011;26164;51.138;16.952;2023-03-24T10:39:53;3.83;;;1.50;;
40459;SDS011;26164;51.138;16.952;2023-03-24T10:42:23;11.25;;;1.70;;
40459;SDS011;26164;51.138;16.952;2023-03-24T10:44:50;4.65;;;1.58;;
40459;SDS011;26164;51.138;16.952;2023-03-24T10:47:23;4.82;;;1.60;;
40459;SDS011;26164;51.138;16.952;2023-03-24T10:50:00;3.47;;;1.50;;
40459;SDS011;26164;51.138;16.952;2023-03-24T10:52:26;7.72;;;3.40;;
40459;SDS011;26164;51.138;16.952;2023-03-24T10:55:01;5.70;;;1.48;;
40459;SDS011;26164;51.138;16.952;2023-03-24T10:57:28;5.93;;;1.70;;
40459;SDS011;26164;51.138;16.952;2023-03-24T11:00:05;5.20;;;1.60;;
40459;SDS011;26164;51.138;16.952;2023-03-24T11:02:42;5.20;;;1.85;;
40459;SDS011;26164;51.138;16.952;2023-03-24T11:05:24;3.85;;;1.40;;
40459;SDS011;26164;51.138;16.952;2023-03-24T11:08:24;3.65;;;1.67;;
40459;SDS011;26164;51.138;16.952;2023-03-24T11:10:50;7.78;;;1.77;;
40459;SDS011;26164;51.138;16.952;2023-03-24T11:13:17;4.07;;;1.55;;
40459;SDS011;26164;51.138;16.952;2023-03-24T11:18:29;4.43;;;2.17;;
40459;SDS011;26164;51.138;16.952;2023-03-24T11:20:56;7.68;;;2.15;;
40459;SDS011;26164;51.138;16.952;2023-03-24T11:23:32;4.93;;;1.95;;
40459;SDS011;26164;51.138;16.952;2023-03-24T11:26:02;7.45;;;1.90;;
40459;SDS011;26164;51.138;16.952;2023-03-24T11:28:36;8.57;;;2.05;;
40459;SDS011;26164;51.138;16.952;2023-03-24T11:31:05;5.15;;;1.75;;
40459;SDS011;26164;51.138;16.952;2023-03-24T11:36:48;4.30;;;1.67;;
40459;SDS011;26164;51.138;16.952;2023-03-24T11:39:23;8.55;;;1.98;;
40459;SDS011;26164;51.138;16.952;2023-03-24T11:41:50;8.68;;;1.83;;
40459;SDS011;26164;51.138;16.952;2023-03-24T11:44:24;6.10;;;2.03;;
40459;SDS011;26164;51.138;16.952;2023-03-24T11:47:22;4.75;;;2.03;;
40459;SDS011;26164;51.138;16.952;2023-03-24T11:56:16;8.90;;;2.40;;
40459;SDS011;26164;51.138;16.952;2023-03-24T11:58:51;6.72;;;2.22;;
40459;SDS011;26164;51.138;16.952;2023-03-24T12:01:38;7.80;;;1.85;;
40459;SDS011;26164;51.138;16.952;2023-03-24T12:04:53;4.85;;;1.98;;
40459;SDS011;26164;51.138;16.952;2023-03-24T12:13:18;8.13;;;1.90;;
40459;SDS011;26164;51.138;16.952;2023-03-24T12:15:55;6.20;;;2.35;;
40459;SDS011;26164;51.138;16.952;2023-03-24T12:18:46;6.75;;;2.13;;
40459;SDS011;26164;51.138;16.952;2023-03-24T12:24:26;3.83;;;1.80;;
40459;SDS011;26164;51.138;16.952;2023-03-24T12:27:02;5.57;;;2.42;;
40459;SDS011;26164;51.138;16.952;2023-03-24T12:29:43;11.05;;;2.20;;
40459;SDS011;26164;51.138;16.952;2023-03-24T12:35:32;6.70;;;2.42;;
40459;SDS011;26164;51.138;16.952;2023-03-24T12:54:46;4.38;;;2.15;;
40459;SDS011;26164;51.138;16.952;2023-03-24T12:57:17;6.50;;;2.70;;
40459;SDS011;26164;51.138;16.952;2023-03-24T12:59:48;5.13;;;2.65;;
40459;SDS011;26164;51.138;16.952;2023-03-24T13:02:26;5.40;;;2.80;;
40459;SDS011;26164;51.138;16.952;2023-03-24T13:05:46;7.65;;;2.60;;
40459;SDS011;26164;51.138;16.952;2023-03-24T13:08:13;4.18;;;2.05;;
40459;SDS011;26164;51.138;16.952;2023-03-24T13:10:59;8.38;;;2.42;;
40459;SDS011;26164;51.138;16.952;2023-03-24T13:13:30;11.15;;;2.47;;
40459;SDS011;26164;51.138;16.952;2023-03-24T13:16:03;6.13;;;2.50;;
40459;SDS011;26164;51.138;16.952;2023-03-24T13:18:38;7.13;;;2.50;;
40459;SDS011;26164;51.138;16.952;2023-03-24T13:21:05;6.80;;;2.75;;
40459;SDS011;26164;51.138;16.952;2023-03-24T13:27:50;4.75;;;2.55;;
40459;SDS011;26164;51.138;16.952;2023-03-24T13:30:39;3.67;;;2.30;;
40459;SDS011;26164;51.138;16.952;2023-03-24T13:33:28;4.93;;;2.60;;
40459;SDS011;26164;51.138;16.952;2023-03-24T13:39:20;13.98;;;3.40;;
40459;SDS011;26164;51.138;16.952;2023-03-24T13:42:01;5.40;;;2.83;;
40459;SDS011;26164;51.138;16.952;2023-03-24T13:44:37;6.22;;;3.13;;
40459;SDS011;26164;51.138;16.952;2023-03-24T13:47:17;12.40;;;3.63;;
40459;SDS011;26164;51.138;16.952;2023-03-24T13:50:04;8.45;;;3.45;;
40459;SDS011;26164;51.138;16.952;2023-03-24T13:52:36;7.75;;;3.08;;
40459;SDS011;26164;51.138;16.952;2023-03-24T13:55:30;8.73;;;3.15;;
40459;SDS011;26164;51.138;16.952;2023-03-24T13:58:24;10.32;;;3.50;;
40459;SDS011;26164;51.138;16.952;2023-03-24T14:03:42;13.68;;;3.75;;
40459;SDS011;26164;51.138;16.952;2023-03-24T14:06:14;13.90;;;4.00;;
40459;SDS011;26164;51.138;16.952;2023-03-24T14:14:16;12.38;;;3.40;;
40459;SDS011;26164;51.138;16.952;2023-03-24T14:17:12;8.88;;;3.35;;
40459;SDS011;26164;51.138;16.952;2023-03-24T14:22:34;15.40;;;3.95;;
40459;SDS011;26164;51.138;16.952;2023-03-24T14:25:23;11.32;;;4.32;;
40459;SDS011;26164;51.138;16.952;2023-03-24T14:31:07;9.52;;;3.53;;
40459;SDS011;26164;51.138;16.952;2023-03-24T14:33:39;8.52;;;3.50;;
40459;SDS011;26164;51.138;16.952;2023-03-24T14:36:10;7.32;;;3.47;;
40459;SDS011;26164;51.138;16.952;2023-03-24T14:38:43;7.90;;;3.05;;
40459;SDS011;26164;51.138;16.952;2023-03-24T14:41:13;14.43;;;3.40;;
40459;SDS011;26164;51.138;16.952;2023-03-24T14:51:34;10.65;;;3.63;;
40459;SDS011;26164;51.138;16.952;2023-03-24T14:54:11;10.27;;;3.92;;
40459;SDS011;26164;51.138;16.952;2023-03-24T14:56:39;10.85;;;3.60;;
40459;SDS011;26164;51.138;16.952;2023-03-24T14:59:51;8.10;;;3.28;;
40459;SDS011;26164;51.138;16.952;2023-03-24T15:02:04;6.50;;;2.67;;
40459;SDS011;26164;51.138;16.952;2023-03-24T15:07:32;5.65;;;2.10;;
40459;SDS011;26164;51.138;16.952;2023-03-24T15:09:58;8.10;;;2.10;;
40459;SDS011;26164;51.138;16.952;2023-03-24T15:12:28;5.15;;;1.92;;
40459;SDS011;26164;51.138;16.952;2023-03-24T15:14:53;4.85;;;1.90;;
40459;SDS011;26164;51.138;16.952;2023-03-24T15:17:21;11.52;;;2.60;;
40459;SDS011;26164;51.138;16.952;2023-03-24T15:19:51;5.35;;;2.40;;
40459;SDS011;26164;51.138;16.952;2023-03-24T15:22:22;5.05;;;2.05;;
40459;SDS011;26164;51.138;16.952;2023-03-24T15:24:50;5.70;;;1.60;;
40459;SDS011;26164;51.138;16.952;2023-03-24T15:27:25;7.10;;;1.85;;
40459;SDS011;26164;51.138;16.952;2023-03-24T15:29:57;5.75;;;1.98;;
40459;SDS011;26164;51.138;16.952;2023-03-24T15:32:27;3.45;;;1.92;;
40459;SDS011;26164;51.138;16.952;2023-03-24T15:38:01;4.25;;;1.90;;
40459;SDS011;26164;51.138;16.952;2023-03-24T15:40:44;4.70;;;1.98;;
40459;SDS011;26164;51.138;16.952;2023-03-24T15:43:19;5.25;;;1.98;;
40459;SDS011;26164;51.138;16.952;2023-03-24T15:45:57;7.95;;;1.77;;
40459;SDS011;26164;51.138;16.952;2023-03-24T15:48:52;3.97;;;1.83;;
40459;SDS011;26164;51.138;16.952;2023-03-24T15:51:49;5.43;;;2.22;;
40459;SDS011;26164;51.138;16.952;2023-03-24T15:54:24;6.22;;;2.10;;
40459;SDS011;26164;51.138;16.952;2023-03-24T15:57:16;8.05;;;1.92;;
40459;SDS011;26164;51.138;16.952;2023-03-24T16:00:16;10.55;;;2.10;;
40459;SDS011;26164;51.138;16.952;2023-03-24T16:02:47;9.15;;;2.17;;
40459;SDS011;26164;51.138;16.952;2023-03-24T16:05:24;4.93;;;2.50;;
40459;SDS011;26164;51.138;16.952;2023-03-24T16:08:06;3.58;;;2.00;;
40459;SDS011;26164;51.138;16.952;2023-03-24T16:10:36;9.60;;;2.65;;
40459;SDS011;26164;51.138;16.952;2023-03-24T16:13:34;7.30;;;2.15;;
40459;SDS011;26164;51.138;16.952;2023-03-24T16:18:50;5.55;;;2.38;;
40459;SDS011;26164;51.138;16.952;2023-03-24T16:21:51;4.60;;;1.75;;
40459;SDS011;26164;51.138;16.952;2023-03-24T16:24:27;5.13;;;2.25;;
40459;SDS011;26164;51.138;16.952;2023-03-24T16:26:53;8.82;;;2.00;;
40459;SDS011;26164;51.138;16.952;2023-03-24T16:29:22;7.82;;;2.03;;
40459;SDS011;26164;51.138;16.952;2023-03-24T16:32:17;9.15;;;2.40;;
40459;SDS011;26164;51.138;16.952;2023-03-24T16:37:17;7.57;;;2.38;;
40459;SDS011;26164;51.138;16.952;2023-03-24T16:39:48;4.93;;;1.98;;
40459;SDS011;26164;51.138;16.952;2023-03-24T16:42:14;5.32;;;2.50;;
40459;SDS011;26164;51.138;16.952;2023-03-24T16:44:48;7.72;;;2.88;;
40459;SDS011;26164;51.138;16.952;2023-03-24T16:47:37;8.48;;;2.45;;
40459;SDS011;26164;51.138;16.952;2023-03-24T16:50:39;10.55;;;2.88;;
40459;SDS011;26164;51.138;16.952;2023-03-24T16:53:15;9.32;;;3.10;;
40459;SDS011;26164;51.138;16.952;2023-03-24T16:55:57;9.05;;;1.90;;
40459;SDS011;26164;51.138;16.952;2023-03-24T16:58:43;6.03;;;2.17;;
40459;SDS011;26164;51.138;16.952;2023-03-24T17:01:39;3.85;;;1.40;;
40459;SDS011;26164;51.138;16.952;2023-03-24T17:04:10;6.10;;;2.10;;
40459;SDS011;26164;51.138;16.952;2023-03-24T17:06:42;5.65;;;2.20;;
40459;SDS011;26164;51.138;16.952;2023-03-24T17:09:10;5.05;;;1.88;;
40459;SDS011;26164;51.138;16.952;2023-03-24T17:11:47;6.38;;;2.00;;
40459;SDS011;26164;51.138;16.952;2023-03-24T17:14:24;10.80;;;2.25;;
40459;SDS011;26164;51.138;16.952;2023-03-24T17:16:59;11.20;;;2.65;;
40459;SDS011;26164;51.138;16.952;2023-03-24T17:19:32;7.07;;;2.90;;
40459;SDS011;26164;51.138;16.952;2023-03-24T17:22:05;15.95;;;2.78;;
40459;SDS011;26164;51.138;16.952;2023-03-24T17:24:39;8.35;;;2.00;;
40459;SDS011;26164;51.138;16.952;2023-03-24T17:27:09;5.72;;;2.30;;
40459;SDS011;26164;51.138;16.952;2023-03-24T17:29:48;6.47;;;3.05;;
40459;SDS011;26164;51.138;16.952;2023-03-24T17:32:53;6.95;;;2.25;;
40459;SDS011;26164;51.138;16.952;2023-03-24T17:35:29;5.13;;;1.80;;
40459;SDS011;26164;51.138;16.952;2023-03-24T17:38:05;6.07;;;1.30;;
40459;SDS011;26164;51.138;16.952;2023-03-24T17:41:17;6.00;;;1.42;;
40459;SDS011;26164;51.138;16.952;2023-03-24T17:44:31;4.53;;;1.17;;
40459;SDS011;26164;51.138;16.952;2023-03-24T17:47:18;3.85;;;1.50;;
40459;SDS011;26164;51.138;16.952;2023-03-24T17:49:59;2.35;;;1.05;;
40459;SDS011;26164;51.138;16.952;2023-03-24T17:52:54;2.35;;;1.10;;
40459;SDS011;26164;51.138;16.952;2023-03-24T17:55:51;4.15;;;1.40;;
40459;SDS011;26164;51.138;16.952;2023-03-24T17:58:28;1.55;;;0.80;;
40459;SDS011;26164;51.138;16.952;2023-03-24T18:04:16;3.65;;;1.10;;
40459;SDS011;26164;51.138;16.952;2023-03-24T18:07:26;2.58;;;1.08;;
40459;SDS011;26164;51.138;16.952;2023-03-24T18:10:15;2.72;;;1.10;;
40459;SDS011;26164;51.138;16.952;2023-03-24T18:12:56;2.78;;;1.10;;
40459;SDS011;26164;51.138;16.952;2023-03-24T18:16:00;3.25;;;1.48;;
40459;SDS011;26164;51.138;16.952;2023-03-24T18:18:49;3.20;;;0.98;;
40459;SDS011;26164;51.138;16.952;2023-03-24T18:21:36;3.38;;;1.15;;
40459;SDS011;26164;51.138;16.952;2023-03-24T18:27:46;5.43;;;1.10;;
40459;SDS011;26164;51.138;16.952;2023-03-24T18:30:14;3.97;;;1.30;;